Time;durP1;ratioP1;P1;durP2;ratioP2;P2;SDS_P1;SDS_P2;PMS_P1;PMS_P2;Temp;Humidity;BMP_temperature;BMP_pressure;BME280_temperature;BME280_humidity;BME280_pressure;Samples;Min_cycle;Max_cycle;Signal;HPM_P1;HPM_P2
2023/03/23 00:00:38;;;;;;;3.20;2.07;;;14.00;91.30;;;;;;5012800;28;20206;-70
2023/03/23 00:03:04;;;;;;;2.50;1.95;;;14.10;91.00;;;;;;5016550;28;20183;-70
2023/03/23 00:05:29;;;;;;;2.20;1.60;;;14.00;90.80;;;;;;5015750;28;20704;-71
2023/03/23 00:07:56;;;;;;;2.57;1.97;;;14.30;91.10;;;;;;5011849;28;20218;-70
2023/03/23 00:10:24;;;;;;;2.63;2.42;;;14.10;91.00;;;;;;5005356;28;20204;-70
2023/03/23 00:12:49;;;;;;;4.57;2.10;;;14.20;91.20;;;;;;5022291;28;20298;-70
2023/03/23 00:15:16;;;;;;;2.23;2.00;;;14.10;91.10;;;;;;5010653;28;20219;-70
2023/03/23 00:17:43;;;;;;;1.90;1.73;;;14.30;91.20;;;;;;5012574;28;20198;-71
2023/03/23 00:20:12;;;;;;;3.17;2.17;;;14.10;91.10;;;;;;5009479;28;20211;-71
2023/03/23 00:22:38;;;;;;;2.28;2.00;;;14.00;91.10;;;;;;5013730;28;20207;-71
2023/03/23 00:25:05;;;;;;;2.33;1.67;;;14.30;91.10;;;;;;5011473;28;20250;-70
2023/03/23 00:27:30;;;;;;;1.75;1.25;;;14.00;89.50;;;;;;5011908;28;20178;-71
2023/03/23 00:29:56;;;;;;;2.00;1.50;;;14.20;87.70;;;;;;5010857;28;20241;-70
2023/03/23 00:32:29;;;;;;;1.40;1.30;;;14.20;86.60;;;;;;5013222;28;20183;-71
2023/03/23 00:34:58;;;;;;;2.53;1.55;;;14.70;86.10;;;;;;5010569;28;20430;-71
2023/03/23 00:37:24;;;;;;;1.58;1.48;;;14.60;85.40;;;;;;5007240;28;20186;-70
2023/03/23 00:39:51;;;;;;;1.52;1.42;;;14.70;84.20;;;;;;5017416;28;20260;-71
2023/03/23 00:42:17;;;;;;;1.75;1.50;;;14.90;85.10;;;;;;5014116;28;20705;-71
2023/03/23 00:44:46;;;;;;;3.10;1.58;;;14.40;84.90;;;;;;5012589;28;20214;-71
2023/03/23 00:47:12;;;;;;;1.73;1.55;;;14.70;84.10;;;;;;5011247;28;20657;-71
2023/03/23 00:49:38;;;;;;;1.70;1.60;;;14.80;83.60;;;;;;5009996;28;20195;-71
2023/03/23 00:52:05;;;;;;;1.70;1.60;;;14.80;83.50;;;;;;5010122;28;20264;-70
2023/03/23 00:54:31;;;;;;;1.90;1.67;;;14.90;83.80;;;;;;5011921;28;20186;-71
2023/03/23 00:56:57;;;;;;;1.92;1.73;;;15.20;83.60;;;;;;5012912;28;20182;-71
2023/03/23 00:59:23;;;;;;;1.70;1.60;;;14.90;83.60;;;;;;5011105;28;20687;-70
2023/03/23 01:01:49;;;;;;;2.53;2.10;;;14.90;83.40;;;;;;5016787;28;20214;-71
2023/03/23 01:04:19;;;;;;;1.98;1.80;;;15.10;83.30;;;;;;5010724;28;20179;-71
2023/03/23 01:06:50;;;;;;;2.10;1.90;;;14.80;83.40;;;;;;5006277;28;20575;-71
2023/03/23 01:09:19;;;;;;;2.30;1.92;;;14.90;82.90;;;;;;5009880;28;20190;-70
2023/03/23 01:11:45;;;;;;;1.83;1.73;;;15.20;83.20;;;;;;5011190;28;20203;-71
2023/03/23 01:14:12;;;;;;;2.15;2.05;;;14.90;82.80;;;;;;5011774;28;20175;-70
2023/03/23 01:16:38;;;;;;;3.08;1.63;;;15.10;82.80;;;;;;5009956;28;20640;-70
2023/03/23 01:19:04;;;;;;;3.50;1.90;;;15.00;83.00;;;;;;5011065;28;20202;-71
2023/03/23 01:21:30;;;;;;;2.13;1.73;;;15.10;83.10;;;;;;5010412;28;20218;-70
2023/03/23 01:23:55;;;;;;;1.80;1.70;;;15.20;83.50;;;;;;5009875;28;20620;-71
2023/03/23 01:26:25;;;;;;;1.97;1.87;;;15.00;83.60;;;;;;5007844;28;20215;-70
2023/03/23 01:28:51;;;;;;;2.05;1.85;;;14.90;83.80;;;;;;5010323;28;20193;-71
2023/03/23 01:31:20;;;;;;;2.30;1.75;;;15.30;84.30;;;;;;5011068;28;20672;-71
2023/03/23 01:33:46;;;;;;;1.90;1.80;;;15.10;83.50;;;;;;5009190;28;20190;-70
2023/03/23 01:36:15;;;;;;;2.20;2.00;;;15.00;82.50;;;;;;5005892;28;20320;-71
2023/03/23 01:38:43;;;;;;;2.95;1.67;;;15.00;83.30;;;;;;5014889;28;20193;-70
2023/03/23 01:41:09;;;;;;;2.33;1.67;;;14.90;83.30;;;;;;5009733;28;20210;-71
2023/03/23 01:43:35;;;;;;;2.00;1.85;;;14.80;83.20;;;;;;5012588;28;20205;-70
2023/03/23 01:46:00;;;;;;;2.50;2.30;;;14.90;83.20;;;;;;5007108;28;20206;-71
2023/03/23 01:48:28;;;;;;;1.50;1.40;;;14.90;83.80;;;;;;5011068;28;20209;-71
2023/03/23 01:50:56;;;;;;;4.38;2.08;;;15.00;83.90;;;;;;5005283;28;20261;-71
2023/03/23 01:53:26;;;;;;;2.63;1.95;;;14.60;84.20;;;;;;5011868;28;20174;-71
2023/03/23 01:55:53;;;;;;;1.85;1.65;;;14.80;84.90;;;;;;5006670;28;20189;-70
2023/03/23 01:58:25;;;;;;;3.25;2.28;;;14.70;84.00;;;;;;5025395;28;20183;-71
2023/03/23 02:00:53;;;;;;;2.00;1.80;;;14.70;84.40;;;;;;5011071;28;20745;-70
2023/03/23 02:03:20;;;;;;;1.80;1.70;;;14.60;84.60;;;;;;5013107;28;20614;-70
2023/03/23 02:05:45;;;;;;;2.30;1.80;;;14.50;84.40;;;;;;5008890;28;20203;-70
2023/03/23 02:08:14;;;;;;;2.70;2.07;;;14.50;84.50;;;;;;5007886;28;20563;-70
2023/03/23 02:10:40;;;;;;;2.60;2.10;;;14.60;85.00;;;;;;5007454;28;20206;-70
2023/03/23 02:13:08;;;;;;;2.60;2.00;;;14.50;85.00;;;;;;5010456;28;20209;-70
2023/03/23 02:15:50;;;;;;;3.53;2.33;;;14.40;85.80;;;;;;5009964;28;20183;-70
2023/03/23 02:18:25;;;;;;;3.22;2.15;;;14.50;86.10;;;;;;5014581;28;20190;-71
2023/03/23 02:21:03;;;;;;;1.80;1.70;;;14.60;86.50;;;;;;5010343;28;20970;-70
2023/03/23 02:23:37;;;;;;;1.60;1.50;;;14.40;85.70;;;;;;5010395;28;20616;-70
2023/03/23 02:26:05;;;;;;;1.80;1.58;;;14.50;85.70;;;;;;5008154;28;20214;-70
2023/03/23 02:28:40;;;;;;;2.75;2.20;;;14.40;86.20;;;;;;5015561;28;20638;-71
2023/03/23 02:31:31;;;;;;;1.90;1.80;;;14.40;85.50;;;;;;5013563;28;20680;-71
2023/03/23 02:34:02;;;;;;;1.88;1.75;;;14.50;85.80;;;;;;5008995;28;20183;-70
2023/03/23 02:36:46;;;;;;;2.50;1.55;;;14.50;86.00;;;;;;5009549;28;20183;-70
2023/03/23 02:39:45;;;;;;;2.55;2.00;;;14.60;86.20;;;;;;5009063;28;20642;-70
2023/03/23 02:42:15;;;;;;;2.05;1.67;;;14.60;86.20;;;;;;5006878;28;20194;-70
2023/03/23 02:44:44;;;;;;;1.90;1.80;;;14.40;85.80;;;;;;5012809;28;20206;-70
2023/03/23 02:47:18;;;;;;;2.03;1.90;;;14.60;85.70;;;;;;5008637;28;20198;-71
2023/03/23 02:49:47;;;;;;;2.58;2.03;;;14.70;86.00;;;;;;5006241;28;20200;-71
2023/03/23 02:52:18;;;;;;;4.18;2.00;;;14.60;86.30;;;;;;5010127;28;20334;-70
2023/03/23 02:54:47;;;;;;;1.80;1.70;;;14.70;86.90;;;;;;5010987;28;20633;-71
2023/03/23 02:57:13;;;;;;;3.15;1.98;;;14.60;86.70;;;;;;5009510;28;20181;-70
2023/03/23 02:59:40;;;;;;;1.70;1.60;;;14.50;86.50;;;;;;5009853;28;20183;-70
2023/03/23 03:02:35;;;;;;;1.60;1.50;;;14.50;86.80;;;;;;5009181;28;20218;-70
2023/03/23 03:05:38;;;;;;;2.55;2.10;;;14.60;86.90;;;;;;5006513;28;20206;-70
2023/03/23 03:08:15;;;;;;;2.17;1.73;;;14.70;87.10;;;;;;5009740;28;20186;-71
2023/03/23 03:11:03;;;;;;;2.35;1.83;;;14.50;87.10;;;;;;5006702;28;20202;-71
2023/03/23 03:13:52;;;;;;;2.22;2.03;;;14.40;87.30;;;;;;5008046;28;20275;-71
2023/03/23 03:16:27;;;;;;;3.00;2.00;;;14.50;88.10;;;;;;5010365;28;20241;-70
2023/03/23 03:19:18;;;;;;;1.70;1.60;;;14.40;87.70;;;;;;5004686;28;20297;-70
2023/03/23 03:21:48;;;;;;;2.80;2.00;;;14.60;88.20;;;;;;5009724;28;20212;-70
2023/03/23 03:24:18;;;;;;;2.00;1.80;;;14.50;88.50;;;;;;5012484;28;20191;-71
2023/03/23 03:26:47;;;;;;;1.70;1.60;;;14.30;88.10;;;;;;5012691;28;21235;-71
2023/03/23 03:29:26;;;;;;;2.55;1.70;;;14.40;88.50;;;;;;5010526;28;20179;-70
2023/03/23 03:31:55;;;;;;;2.08;1.88;;;14.40;88.90;;;;;;5014401;28;20605;-69
2023/03/23 03:34:24;;;;;;;2.28;1.90;;;14.40;88.60;;;;;;5007777;28;20187;-70
2023/03/23 03:36:53;;;;;;;1.90;1.80;;;14.40;88.70;;;;;;5011832;28;20192;-72
2023/03/23 03:39:20;;;;;;;3.17;1.63;;;14.30;88.80;;;;;;5012028;28;20658;-70
2023/03/23 03:41:46;;;;;;;1.83;1.73;;;14.30;88.90;;;;;;5009660;28;20597;-71
2023/03/23 03:44:11;;;;;;;2.50;1.90;;;14.40;88.90;;;;;;5009559;28;20190;-70
2023/03/23 03:46:37;;;;;;;2.10;1.90;;;14.40;89.20;;;;;;5011928;28;20207;-71
2023/03/23 03:49:06;;;;;;;2.10;1.85;;;14.20;89.30;;;;;;5009861;28;20198;-72
2023/03/23 03:51:33;;;;;;;1.67;1.55;;;14.50;89.50;;;;;;5011949;28;20210;-71
2023/03/23 03:53:58;;;;;;;1.70;1.60;;;14.80;89.30;;;;;;5012460;28;20226;-71
2023/03/23 03:56:25;;;;;;;2.00;1.43;;;14.40;88.40;;;;;;5011862;28;20187;-71
2023/03/23 03:58:53;;;;;;;1.80;1.70;;;14.60;88.10;;;;;;5007054;28;20214;-71
2023/03/23 04:01:22;;;;;;;1.77;1.60;;;14.60;87.90;;;;;;5013171;28;20818;-71
2023/03/23 04:03:48;;;;;;;1.90;1.80;;;14.50;88.70;;;;;;5011647;28;20187;-70
2023/03/23 04:06:14;;;;;;;2.00;1.80;;;14.50;89.50;;;;;;5008989;28;20291;-71
2023/03/23 04:08:41;;;;;;;5.95;1.70;;;14.50;89.70;;;;;;5009098;28;20194;-70
2023/03/23 04:11:14;;;;;;;2.35;1.75;;;14.20;88.90;;;;;;5040924;28;20245;-71
2023/03/23 04:13:40;;;;;;;1.95;1.85;;;14.30;88.50;;;;;;5006922;28;20194;-71
2023/03/23 04:16:07;;;;;;;2.40;1.70;;;14.30;88.30;;;;;;5011149;28;20195;-71
2023/03/23 04:18:33;;;;;;;2.30;2.10;;;14.60;88.70;;;;;;5014104;28;20187;-70
2023/03/23 04:21:00;;;;;;;5.97;3.17;;;14.70;89.40;;;;;;5013318;28;20191;-71
2023/03/23 04:23:30;;;;;;;2.90;1.88;;;14.30;88.90;;;;;;5009991;28;20182;-71
2023/03/23 04:25:57;;;;;;;2.35;1.77;;;14.60;89.00;;;;;;5014626;28;20301;-70
2023/03/23 04:28:24;;;;;;;2.95;1.63;;;14.30;88.40;;;;;;5012583;28;20648;-70
2023/03/23 04:30:52;;;;;;;3.38;2.38;;;14.60;89.00;;;;;;5010612;28;20568;-70
2023/03/23 04:33:29;;;;;;;1.73;1.63;;;14.60;89.10;;;;;;5009632;28;20194;-71
2023/03/23 04:36:00;;;;;;;3.35;1.90;;;14.60;88.20;;;;;;5009712;28;20601;-70
2023/03/23 04:38:27;;;;;;;1.83;1.73;;;14.80;88.10;;;;;;5007328;28;20232;-71
2023/03/23 04:40:54;;;;;;;1.65;1.55;;;14.60;87.50;;;;;;5004823;28;20217;-70
2023/03/23 04:43:22;;;;;;;1.90;1.60;;;14.80;87.40;;;;;;5012773;28;20178;-70
2023/03/23 04:45:59;;;;;;;1.75;1.65;;;15.10;87.30;;;;;;5009084;28;20222;-70
2023/03/23 04:48:27;;;;;;;1.77;1.67;;;14.90;86.40;;;;;;5007152;28;20744;-71
2023/03/23 04:50:53;;;;;;;2.13;1.77;;;14.90;86.40;;;;;;5009634;28;20203;-71
2023/03/23 04:53:20;;;;;;;1.70;1.40;;;15.20;86.70;;;;;;5007039;28;20179;-71
2023/03/23 04:55:47;;;;;;;2.35;2.10;;;15.00;87.00;;;;;;5004783;28;20183;-70
2023/03/23 04:58:15;;;;;;;2.15;1.95;;;15.00;86.30;;;;;;5009890;28;20187;-70
2023/03/23 05:00:43;;;;;;;3.30;1.98;;;15.00;86.30;;;;;;5009169;28;20293;-70
2023/03/23 05:03:10;;;;;;;2.55;2.30;;;15.10;87.20;;;;;;5008156;28;20179;-71
2023/03/23 05:05:36;;;;;;;4.72;3.05;;;15.20;87.70;;;;;;5008821;28;20198;-71
2023/03/23 05:08:02;;;;;;;3.20;1.90;;;15.10;87.90;;;;;;5009438;28;20198;-71
2023/03/23 05:10:27;;;;;;;2.63;2.10;;;15.30;88.00;;;;;;5006677;28;20282;-71
2023/03/23 05:12:54;;;;;;;2.97;2.70;;;15.20;87.90;;;;;;5009017;28;20183;-71
2023/03/23 05:15:20;;;;;;;2.17;1.98;;;15.10;88.50;;;;;;5040059;28;20221;-71
2023/03/23 05:17:45;;;;;;;3.20;1.63;;;15.20;86.50;;;;;;5006415;28;20223;-71
2023/03/23 05:20:18;;;;;;;11.07;2.60;;;15.30;86.00;;;;;;5006630;28;20218;-70
2023/03/23 05:22:44;;;;;;;2.40;2.03;;;15.00;86.70;;;;;;5010267;28;20437;-70
2023/03/23 05:25:10;;;;;;;2.60;2.10;;;15.00;86.60;;;;;;5009504;28;20203;-71
2023/03/23 05:27:37;;;;;;;2.63;2.00;;;15.10;86.70;;;;;;5010009;28;20175;-70
2023/03/23 05:30:04;;;;;;;3.83;2.20;;;15.00;86.40;;;;;;5008519;28;20206;-70
2023/03/23 05:32:30;;;;;;;2.60;2.40;;;15.00;88.30;;;;;;5009992;28;20189;-71
2023/03/23 05:35:00;;;;;;;5.10;2.65;;;15.10;88.80;;;;;;5006262;28;20179;-71
2023/03/23 05:37:31;;;;;;;3.15;1.50;;;15.00;88.90;;;;;;5005713;28;20211;-71
2023/03/23 05:40:01;;;;;;;3.13;2.40;;;15.10;87.20;;;;;;5005323;28;20179;-70
2023/03/23 05:42:27;;;;;;;3.17;2.28;;;15.20;87.90;;;;;;5011116;28;20194;-71
2023/03/23 05:44:53;;;;;;;4.47;2.30;;;15.40;87.00;;;;;;5008771;28;20190;-70
2023/03/23 05:47:19;;;;;;;2.30;1.60;;;15.20;86.10;;;;;;5007072;28;20183;-70
2023/03/23 05:49:45;;;;;;;2.40;2.20;;;15.30;85.20;;;;;;5005828;28;20731;-70
2023/03/23 05:52:11;;;;;;;1.65;1.55;;;15.20;85.40;;;;;;5009399;28;20251;-70
2023/03/23 05:54:37;;;;;;;4.00;2.50;;;15.40;85.00;;;;;;5008948;28;20707;-71
2023/03/23 05:57:03;;;;;;;4.17;2.83;;;15.50;85.90;;;;;;5006172;28;20194;-70
2023/03/23 05:59:29;;;;;;;1.75;1.50;;;15.60;85.60;;;;;;5007529;28;20233;-66
2023/03/23 06:01:55;;;;;;;2.70;2.37;;;15.70;85.20;;;;;;5007845;28;20203;-66
2023/03/23 06:04:24;;;;;;;3.43;2.43;;;15.60;86.20;;;;;;5008952;28;20933;-67
2023/03/23 06:06:51;;;;;;;2.70;2.50;;;15.60;84.90;;;;;;5005416;28;20520;-66
2023/03/23 06:09:17;;;;;;;5.40;2.40;;;15.60;85.20;;;;;;5007632;28;20189;-66
2023/03/23 06:11:43;;;;;;;5.85;3.25;;;15.80;85.40;;;;;;5004969;28;20206;-66
2023/03/23 06:14:09;;;;;;;2.42;2.22;;;15.60;85.60;;;;;;5008544;28;20536;-66
2023/03/23 06:16:35;;;;;;;2.53;2.00;;;15.70;83.60;;;;;;5006219;28;20206;-67
2023/03/23 06:19:02;;;;;;;3.03;2.73;;;15.80;83.90;;;;;;5004609;28;20460;-67
2023/03/23 06:21:28;;;;;;;1.90;1.70;;;15.90;83.60;;;;;;5004698;28;20345;-67
2023/03/23 06:23:53;;;;;;;2.40;1.90;;;15.90;83.40;;;;;;5008029;28;20270;-67
2023/03/23 06:26:20;;;;;;;2.10;1.77;;;15.90;83.00;;;;;;5006802;28;20280;-67
2023/03/23 06:28:47;;;;;;;2.65;2.45;;;16.10;82.90;;;;;;5008063;28;20190;-68
2023/03/23 06:31:14;;;;;;;1.52;1.42;;;16.20;84.10;;;;;;5007720;28;20680;-68
2023/03/23 06:33:40;;;;;;;2.65;2.28;;;15.90;82.60;;;;;;5005746;28;20190;-69
2023/03/23 06:36:06;;;;;;;5.15;3.63;;;16.00;83.20;;;;;;5007644;28;20652;-68
2023/03/23 06:38:32;;;;;;;8.43;4.45;;;15.90;86.60;;;;;;5003310;28;20202;-66
2023/03/23 06:40:58;;;;;;;10.03;4.70;;;16.00;87.10;;;;;;5001836;28;20211;-67
2023/03/23 06:43:24;;;;;;;5.23;3.80;;;16.10;88.80;;;;;;5006829;28;20174;-67
2023/03/23 06:45:51;;;;;;;5.15;4.03;;;16.00;88.10;;;;;;5009632;28;20203;-66
2023/03/23 06:48:17;;;;;;;5.63;3.90;;;15.80;88.80;;;;;;5007323;28;20221;-67
2023/03/23 06:50:46;;;;;;;4.53;3.60;;;16.00;89.00;;;;;;5001786;28;20225;-68
2023/03/23 06:53:12;;;;;;;5.13;3.20;;;15.90;90.00;;;;;;5003140;28;20931;-65
2023/03/23 06:55:39;;;;;;;4.65;3.70;;;15.80;90.20;;;;;;5002180;28;20191;-66
2023/03/23 06:58:05;;;;;;;5.97;3.80;;;15.80;90.10;;;;;;5004674;28;20556;-66
2023/03/23 07:00:32;;;;;;;4.50;3.33;;;15.80;90.10;;;;;;5005033;28;20210;-66
2023/03/23 07:02:58;;;;;;;4.07;3.22;;;16.00;90.20;;;;;;5004811;28;20186;-66
2023/03/23 07:05:25;;;;;;;43.42;8.93;;;16.00;90.00;;;;;;5002332;28;20298;-66
2023/03/23 07:07:51;;;;;;;17.55;5.65;;;16.30;90.10;;;;;;5005733;28;20241;-68
2023/03/23 07:10:17;;;;;;;5.90;4.13;;;16.10;90.00;;;;;;5003527;28;20651;-66
2023/03/23 07:12:42;;;;;;;12.40;3.97;;;16.10;89.70;;;;;;5000717;28;20187;-67
2023/03/23 07:15:10;;;;;;;5.03;3.23;;;16.30;89.30;;;;;;5006960;28;20675;-66
2023/03/23 07:17:40;;;;;;;5.30;2.95;;;16.40;89.00;;;;;;5006843;28;20194;-64
2023/03/23 07:20:07;;;;;;;5.18;3.10;;;16.40;88.40;;;;;;5001664;28;20217;-64
2023/03/23 07:22:33;;;;;;;4.38;2.40;;;16.60;88.10;;;;;;5003457;28;20191;-65
2023/03/23 07:24:59;;;;;;;3.17;2.90;;;16.50;87.00;;;;;;5002901;28;20206;-66
2023/03/23 07:27:25;;;;;;;5.27;3.10;;;16.70;86.90;;;;;;5000500;28;20183;-67
2023/03/23 07:29:51;;;;;;;5.90;3.00;;;16.60;87.00;;;;;;5001049;28;20221;-65
2023/03/23 07:32:17;;;;;;;4.20;3.30;;;16.50;86.80;;;;;;5007107;28;20178;-66
2023/03/23 07:34:43;;;;;;;5.35;3.10;;;16.70;87.70;;;;;;5004782;28;20955;-65
2023/03/23 07:37:08;;;;;;;13.10;3.63;;;16.60;87.70;;;;;;5002854;28;20187;-65
2023/03/23 07:39:35;;;;;;;5.73;3.00;;;16.70;88.00;;;;;;5006578;28;20186;-65
2023/03/23 07:42:01;;;;;;;3.00;2.75;;;16.80;88.50;;;;;;5004386;28;20462;-65
2023/03/23 07:44:27;;;;;;;6.07;3.20;;;16.90;86.70;;;;;;5006447;28;20190;-65
2023/03/23 07:46:53;;;;;;;5.30;3.50;;;16.80;87.40;;;;;;5004669;28;20524;-65
2023/03/23 07:49:20;;;;;;;2.60;2.40;;;16.90;87.30;;;;;;5004429;28;20557;-65
2023/03/23 07:51:45;;;;;;;2.85;2.65;;;16.60;83.40;;;;;;5004460;28;20564;-65
2023/03/23 07:54:12;;;;;;;2.27;2.07;;;16.90;83.70;;;;;;5005397;28;20183;-65
2023/03/23 07:56:41;;;;;;;2.97;2.65;;;16.90;83.20;;;;;;4998772;28;20191;-65
2023/03/23 07:59:07;;;;;;;2.97;2.05;;;17.10;82.90;;;;;;5003022;28;20603;-65
2023/03/23 08:01:33;;;;;;;4.88;2.20;;;17.00;82.00;;;;;;5004321;28;20211;-66
2023/03/23 08:03:59;;;;;;;2.10;1.90;;;17.10;81.50;;;;;;5004794;28;20894;-66
2023/03/23 08:06:26;;;;;;;2.53;2.33;;;17.50;81.10;;;;;;5004216;28;20465;-65
2023/03/23 08:08:52;;;;;;;2.45;2.25;;;17.60;80.80;;;;;;5005899;28;20178;-66
2023/03/23 08:11:19;;;;;;;2.35;2.15;;;17.40;80.50;;;;;;5004050;28;20286;-66
2023/03/23 08:13:49;;;;;;;2.13;1.70;;;17.50;81.20;;;;;;5002829;28;20902;-67
2023/03/23 08:16:18;;;;;;;2.30;2.00;;;17.40;81.50;;;;;;5008060;28;20219;-67
2023/03/23 08:18:45;;;;;;;3.40;2.65;;;17.40;82.30;;;;;;5010566;28;20179;-66
2023/03/23 08:21:10;;;;;;;3.42;2.85;;;17.30;82.90;;;;;;5009933;28;20210;-67
2023/03/23 08:23:36;;;;;;;2.30;2.10;;;17.40;83.60;;;;;;5009156;28;20553;-66
2023/03/23 08:26:06;;;;;;;5.47;4.97;;;17.30;83.40;;;;;;5007938;28;20207;-67
2023/03/23 08:28:32;;;;;;;2.45;2.25;;;17.50;83.70;;;;;;5007354;28;20187;-67
2023/03/23 08:30:57;;;;;;;3.08;2.22;;;17.50;84.30;;;;;;5009610;28;20754;-66
2023/03/23 08:33:23;;;;;;;2.33;2.13;;;17.60;83.70;;;;;;5007297;28;20183;-67
2023/03/23 08:35:59;;;;;;;3.20;2.30;;;17.60;84.00;;;;;;5009758;28;20596;-67
2023/03/23 08:38:27;;;;;;;2.63;2.35;;;17.80;84.50;;;;;;5008867;28;20183;-66
2023/03/23 08:40:58;;;;;;;2.10;1.90;;;18.00;84.70;;;;;;5006515;28;20599;-66
2023/03/23 08:43:23;;;;;;;1.88;1.77;;;17.60;84.70;;;;;;5008479;28;20532;-67
2023/03/23 08:45:50;;;;;;;2.40;1.80;;;17.30;85.00;;;;;;5008777;28;20222;-67
2023/03/23 08:48:16;;;;;;;4.25;1.98;;;17.50;85.90;;;;;;5009960;28;20207;-66
2023/03/23 08:50:42;;;;;;;3.05;2.75;;;17.30;86.80;;;;;;5009835;28;20924;-66
2023/03/23 08:53:08;;;;;;;2.20;2.00;;;17.10;87.60;;;;;;5008697;28;20278;-67
2023/03/23 08:55:33;;;;;;;4.07;2.30;;;17.00;87.90;;;;;;5008864;28;20191;-66
2023/03/23 08:57:59;;;;;;;2.70;2.50;;;17.10;88.70;;;;;;5009635;28;20195;-66
2023/03/23 09:00:26;;;;;;;4.33;1.90;;;17.00;89.00;;;;;;5005665;28;20629;-67
2023/03/23 09:02:53;;;;;;;2.65;2.17;;;17.20;89.40;;;;;;5010687;28;20277;-68
2023/03/23 09:05:22;;;;;;;5.25;2.00;;;17.10;89.10;;;;;;5010957;28;20213;-68
2023/03/23 09:07:50;;;;;;;2.42;2.10;;;17.10;89.10;;;;;;5037649;28;20595;-65
2023/03/23 09:10:17;;;;;;;3.33;2.05;;;17.30;89.00;;;;;;5005392;28;20207;-66
2023/03/23 09:12:44;;;;;;;2.38;1.90;;;17.20;88.20;;;;;;5009240;28;20179;-66
2023/03/23 09:15:13;;;;;;;2.30;2.05;;;17.70;88.20;;;;;;5009777;28;20179;-67
2023/03/23 09:17:41;;;;;;;2.30;2.10;;;17.80;87.60;;;;;;5009278;28;20181;-66
2023/03/23 09:20:13;;;;;;;3.08;2.28;;;18.00;87.30;;;;;;5007580;28;20688;-66
2023/03/23 09:22:40;;;;;;;5.30;2.55;;;17.70;86.40;;;;;;5041531;28;20191;-66
2023/03/23 09:25:08;;;;;;;2.42;2.22;;;17.90;86.90;;;;;;5006895;28;20345;-66
2023/03/23 09:27:36;;;;;;;3.95;2.30;;;18.10;86.90;;;;;;5007406;28;20551;-67
2023/03/23 09:30:05;;;;;;;2.65;2.30;;;18.00;85.50;;;;;;5009520;28;20207;-67
2023/03/23 09:32:33;;;;;;;2.30;2.10;;;18.50;85.50;;;;;;5009159;28;20179;-67
2023/03/23 09:34:58;;;;;;;1.98;1.77;;;18.50;85.20;;;;;;5008114;28;20180;-65
2023/03/23 09:37:24;;;;;;;2.30;1.90;;;18.10;84.30;;;;;;5011750;28;20323;-66
2023/03/23 09:39:50;;;;;;;3.10;1.97;;;18.30;84.70;;;;;;5008348;28;20641;-66
2023/03/23 09:42:35;;;;;;;3.40;2.00;;;18.50;84.90;;;;;;5008285;28;20179;-65
2023/03/23 09:45:09;;;;;;;3.38;2.35;;;18.30;84.40;;;;;;5009111;28;20469;-66
2023/03/23 09:48:00;;;;;;;5.30;1.90;;;18.10;84.30;;;;;;5007223;28;20811;-66
2023/03/23 09:50:33;;;;;;;1.77;1.67;;;18.20;84.60;;;;;;5008067;28;20320;-66
2023/03/23 09:53:07;;;;;;;1.60;1.50;;;18.00;84.40;;;;;;5008988;28;20215;-66
2023/03/23 09:55:35;;;;;;;4.95;1.63;;;18.00;84.50;;;;;;5008165;28;20277;-66
2023/03/23 09:58:15;;;;;;;3.83;2.25;;;17.90;84.80;;;;;;5008652;28;20206;-66
2023/03/23 10:01:08;;;;;;;1.85;1.75;;;18.00;85.60;;;;;;5037129;28;20281;-66
2023/03/23 10:03:43;;;;;;;3.30;1.73;;;18.20;85.60;;;;;;5008632;28;20240;-66
2023/03/23 10:06:17;;;;;;;2.25;2.05;;;18.50;85.80;;;;;;5004701;28;20213;-66
2023/03/23 10:09:14;;;;;;;2.30;2.00;;;18.50;84.70;;;;;;5003361;28;20183;-66
2023/03/23 10:12:16;;;;;;;2.10;1.90;;;18.50;85.00;;;;;;5002481;28;20627;-66
2023/03/23 10:14:53;;;;;;;2.85;1.90;;;18.50;85.00;;;;;;5004685;28;20200;-66
2023/03/23 10:17:42;;;;;;;1.80;1.70;;;18.60;84.40;;;;;;5005922;28;20214;-66
2023/03/23 10:20:28;;;;;;;2.13;1.70;;;18.50;83.70;;;;;;5038893;28;20711;-66
2023/03/23 10:23:12;;;;;;;2.60;1.92;;;19.40;84.70;;;;;;5006656;28;20185;-67
2023/03/23 10:25:42;;;;;;;2.33;2.13;;;19.40;82.70;;;;;;5038246;28;20211;-66
2023/03/23 10:28:36;;;;;;;4.03;2.38;;;19.80;81.70;;;;;;5008030;28;20187;-66
2023/03/23 10:31:03;;;;;;;2.00;1.80;;;20.20;80.10;;;;;;5007134;28;20316;-66
2023/03/23 10:33:37;;;;;;;2.75;1.70;;;20.20;79.10;;;;;;5007608;28;20194;-67
2023/03/23 10:36:07;;;;;;;4.55;1.83;;;19.90;79.10;;;;;;5003596;28;20212;-66
2023/03/23 10:38:42;;;;;;;1.92;1.67;;;19.80;80.00;;;;;;5008100;28;20187;-66
2023/03/23 10:41:15;;;;;;;2.75;1.70;;;19.40;80.70;;;;;;5003592;28;20299;-66
2023/03/23 10:43:42;;;;;;;2.08;1.83;;;19.10;81.90;;;;;;5007794;28;20198;-66
2023/03/23 10:46:17;;;;;;;2.42;1.65;;;19.00;82.60;;;;;;5007858;28;20297;-66
2023/03/23 10:48:44;;;;;;;2.00;1.80;;;18.90;82.80;;;;;;5005284;28;20689;-66
2023/03/23 10:51:13;;;;;;;2.13;1.80;;;18.80;83.10;;;;;;5008232;28;20575;-66
2023/03/23 10:53:43;;;;;;;2.47;1.95;;;18.60;83.60;;;;;;5006983;28;20183;-66
2023/03/23 10:56:34;;;;;;;1.90;1.80;;;18.40;84.40;;;;;;5001334;28;20660;-65
2023/03/23 10:59:00;;;;;;;3.67;2.30;;;18.40;84.20;;;;;;5006712;28;20186;-67
2023/03/23 11:01:34;;;;;;;2.90;2.10;;;18.90;84.30;;;;;;5007591;28;20209;-65
2023/03/23 11:04:01;;;;;;;2.20;2.00;;;19.30;83.90;;;;;;5003816;28;20457;-66
2023/03/23 11:06:37;;;;;;;2.65;2.28;;;19.50;82.40;;;;;;5005756;28;20526;-66
2023/03/23 11:09:11;;;;;;;2.78;2.03;;;19.30;82.20;;;;;;5007169;28;20205;-66
2023/03/23 11:11:43;;;;;;;2.20;2.03;;;19.40;82.40;;;;;;5008089;28;20215;-66
2023/03/23 11:14:19;;;;;;;2.60;1.75;;;19.40;82.00;;;;;;5003593;28;20183;-66
2023/03/23 11:17:00;;;;;;;2.10;1.90;;;19.50;81.70;;;;;;5005493;28;20248;-66
2023/03/23 11:19:35;;;;;;;2.58;2.03;;;19.50;82.00;;;;;;5004835;28;20684;-66
2023/03/23 11:22:04;;;;;;;3.33;2.22;;;19.10;82.10;;;;;;5007612;28;20221;-66
2023/03/23 11:24:33;;;;;;;2.67;2.00;;;19.10;83.70;;;;;;5007256;28;20863;-66
2023/03/23 11:27:00;;;;;;;3.00;2.40;;;19.20;83.80;;;;;;5004385;28;20264;-67
2023/03/23 11:29:28;;;;;;;5.38;2.35;;;19.20;84.20;;;;;;5007250;28;20183;-66
2023/03/23 11:32:10;;;;;;;2.40;2.20;;;19.20;84.90;;;;;;5007351;28;20294;-66
2023/03/23 11:34:48;;;;;;;2.28;2.08;;;19.30;85.90;;;;;;5007083;28;20229;-66
2023/03/23 11:37:18;;;;;;;2.38;1.98;;;19.10;85.10;;;;;;5004251;28;20193;-66
2023/03/23 11:39:58;;;;;;;4.03;2.05;;;19.10;84.70;;;;;;5006880;28;20213;-66
2023/03/23 11:42:34;;;;;;;2.30;2.10;;;19.10;84.10;;;;;;5009029;28;20186;-66
2023/03/23 11:45:25;;;;;;;3.45;2.40;;;19.40;83.80;;;;;;5011078;28;20272;-66
2023/03/23 11:48:10;;;;;;;4.32;2.00;;;19.80;83.10;;;;;;5041548;28;20199;-67
2023/03/23 11:50:49;;;;;;;2.67;1.60;;;20.00;82.10;;;;;;5008194;28;20229;-67
2023/03/23 11:53:33;;;;;;;3.20;2.13;;;19.90;81.30;;;;;;5010400;28;20273;-67
2023/03/23 11:56:27;;;;;;;2.58;2.38;;;19.80;80.80;;;;;;5008241;28;20218;-67
2023/03/23 11:58:57;;;;;;;4.18;2.60;;;20.00;80.40;;;;;;5011782;28;20235;-68
2023/03/23 12:01:53;;;;;;;2.30;2.10;;;20.00;80.40;;;;;;5025677;28;20298;-67
2023/03/23 12:04:28;;;;;;;2.60;2.40;;;20.20;81.40;;;;;;5041392;28;20477;-67
2023/03/23 12:07:24;;;;;;;3.15;1.90;;;20.30;78.80;;;;;;5022795;28;20644;-67
2023/03/23 12:09:58;;;;;;;2.77;2.47;;;20.30;78.50;;;;;;5007612;28;20230;-68
2023/03/23 12:12:39;;;;;;;1.95;1.80;;;20.40;78.10;;;;;;5005308;28;20982;-67
2023/03/23 12:15:21;;;;;;;1.75;1.60;;;20.00;76.20;;;;;;5014366;28;20178;-67
2023/03/23 12:18:06;;;;;;;1.83;1.73;;;19.90;76.60;;;;;;5008427;28;20263;-67
2023/03/23 12:20:44;;;;;;;2.08;1.83;;;19.80;76.50;;;;;;5009477;28;20204;-67
2023/03/23 12:23:28;;;;;;;2.03;1.90;;;19.70;77.10;;;;;;5007655;28;20189;-67
2023/03/23 12:26:06;;;;;;;1.75;1.65;;;20.00;77.40;;;;;;5007115;28;20285;-65
2023/03/23 12:28:32;;;;;;;3.15;1.90;;;19.70;77.50;;;;;;5010579;28;20194;-66
2023/03/23 12:31:19;;;;;;;3.63;1.93;;;19.40;77.30;;;;;;5025046;28;20225;-66
2023/03/23 12:34:02;;;;;;;2.08;1.88;;;19.30;77.70;;;;;;5010271;28;20174;-65
2023/03/23 12:36:39;;;;;;;2.40;1.70;;;19.40;77.80;;;;;;5009532;28;20194;-65
2023/03/23 12:39:12;;;;;;;2.58;2.17;;;19.40;78.00;;;;;;5009972;28;20340;-66
2023/03/23 12:42:04;;;;;;;2.17;1.92;;;19.40;78.40;;;;;;5006359;28;20701;-66
2023/03/23 12:45:02;;;;;;;3.17;2.30;;;19.30;78.20;;;;;;5008394;28;20222;-66
2023/03/23 12:47:56;;;;;;;2.17;1.90;;;19.70;78.80;;;;;;5008698;28;20213;-66
2023/03/23 12:50:46;;;;;;;2.88;2.47;;;19.60;78.60;;;;;;5003349;28;20258;-66
2023/03/23 12:53:21;;;;;;;2.65;2.22;;;19.80;77.70;;;;;;5006187;28;20186;-66
2023/03/23 12:55:49;;;;;;;2.45;1.77;;;19.90;77.00;;;;;;5005156;28;20182;-66
2023/03/23 12:58:30;;;;;;;2.00;1.80;;;19.70;77.50;;;;;;5024909;28;20700;-66
2023/03/23 13:01:17;;;;;;;2.58;1.80;;;19.80;77.80;;;;;;5009388;28;20302;-66
2023/03/23 13:03:49;;;;;;;2.90;1.70;;;19.60;78.20;;;;;;5007709;28;20179;-66